Spur, Texas
Current Conditions -  °F | °C
As of 2:15 PM on Thursday 30 Oct 2014 (Local Time) from KSNK Reporting Station
Clear Clear  
Wind Chill: 73°   Ceiling: Unl
Heat Index: 73°   Visibility: 10mi
Dew Point: 60°   Wind: 0mph
Humidity: 64%   Direction: NA
Pressure: 30.13"   Gusts: NA
Location:  33.48°N, 100.86°W
Report Text: KSNK 301915Z AUTO 00000KT 10SM CLR 23/16 A3013 RMK AO2 T02280156
Loading
Personal Weather Stations






























Interactive Weather Map
Tropical Storm Tracking
New forecast layout! Learn more

10-Day Weather Forecast

Advertisements
Track Severe Weather on mobile